Time;durP1;ratioP1;P1;durP2;ratioP2;P2;SDS_P1;SDS_P2;PMS_P1;PMS_P2;Temp;Humidity;BMP_temperature;BMP_pressure;BME280_temperature;BME280_humidity;BME280_pressure;Samples;Min_cycle;Max_cycle;Signal;HPM_P1;HPM_P2
2022/12/06 00:00:11;;;;;;;6.37;4.50;;;-0.30;99.90;0.20;94020.00;;;;7401154;19;20595;-77
2022/12/06 00:02:38;;;;;;;5.93;4.03;;;-0.20;99.90;0.10;94032.00;;;;7399793;19;20152;-77
2022/12/06 00:05:06;;;;;;;5.90;4.07;;;-0.20;99.90;0.10;94029.00;;;;7400091;19;20599;-78
2022/12/06 00:07:40;;;;;;;5.33;4.03;;;-0.30;99.90;0.10;94021.00;;;;7401033;19;20592;-78
2022/12/06 00:10:07;;;;;;;6.47;4.33;;;-0.20;99.90;0.20;94027.00;;;;7396607;19;20638;-78
2022/12/06 00:12:34;;;;;;;5.10;3.83;;;-0.20;99.90;0.20;94032.00;;;;7400516;19;20136;-77
2022/12/06 00:15:08;;;;;;;5.13;4.03;;;-0.20;99.90;0.30;94014.00;;;;7396647;19;20183;-78
2022/12/06 00:17:35;;;;;;;4.97;3.60;;;-0.20;99.90;0.40;93998.00;;;;7399112;19;20121;-78
2022/12/06 00:20:09;;;;;;;5.40;3.83;;;-0.10;99.90;0.40;94001.00;;;;7399324;19;20136;-77
2022/12/06 00:22:44;;;;;;;5.67;3.83;;;-0.10;97.10;0.40;94003.00;;;;7399587;19;20141;-78
2022/12/06 00:25:11;;;;;;;5.27;4.10;;;-0.10;99.90;0.50;94021.00;;;;7398352;19;20176;-77
2022/12/06 00:27:38;;;;;;;7.77;4.83;;;-0.10;99.90;0.40;94003.00;;;;7399188;19;20156;-77
2022/12/06 00:30:12;;;;;;;6.80;4.97;;;-0.10;99.90;0.60;93987.00;;;;7399185;19;20140;-77
2022/12/06 00:32:39;;;;;;;7.37;4.07;;;-0.10;99.90;0.40;94001.00;;;;7399068;19;20133;-78
2022/12/06 00:35:06;;;;;;;6.17;4.47;;;-0.10;99.90;0.50;94002.00;;;;7398913;19;20210;-77
2022/12/06 00:37:41;;;;;;;6.73;4.07;;;-0.10;99.90;0.40;94009.00;;;;7400292;19;20192;-77
2022/12/06 00:40:08;;;;;;;6.10;4.87;;;-0.10;99.90;0.40;93994.00;;;;7397763;19;20185;-78
2022/12/06 00:42:49;;;;;;;5.20;4.00;;;-0.10;99.90;0.50;94014.00;;;;7397157;19;20200;-77
2022/12/06 00:45:23;;;;;;;5.23;3.87;;;-0.10;99.90;0.50;94009.00;;;;7398193;19;20156;-76
2022/12/06 00:47:50;;;;;;;5.67;4.10;;;0.00;99.90;0.60;93978.00;;;;7397137;19;20153;-76
2022/12/06 00:50:17;;;;;;;5.50;4.27;;;0.00;99.90;0.60;93996.00;;;;7397517;19;20212;-77
2022/12/06 00:52:51;;;;;;;6.70;4.30;;;0.00;99.90;0.50;94002.00;;;;7399351;19;20137;-77
2022/12/06 00:55:18;;;;;;;5.63;3.87;;;0.00;99.90;0.70;93999.00;;;;7398883;19;20156;-76
2022/12/06 00:57:45;;;;;;;5.70;3.83;;;0.00;99.90;0.70;93998.00;;;;7398760;19;20224;-77
2022/12/06 01:00:19;;;;;;;6.50;4.43;;;0.00;99.90;0.80;93984.00;;;;7397497;19;20152;-77
2022/12/06 01:02:46;;;;;;;5.27;4.17;;;0.00;99.90;0.60;94006.00;;;;7397999;19;20160;-76
2022/12/06 01:05:13;;;;;;;4.97;4.00;;;0.10;99.90;0.50;93998.00;;;;7397513;19;20152;-76
2022/12/06 01:07:47;;;;;;;6.23;4.23;;;0.00;99.90;0.60;93991.00;;;;7397286;19;20156;-76
2022/12/06 01:10:14;;;;;;;5.63;3.93;;;0.00;99.90;0.60;93997.00;;;;7390216;19;20149;-76
2022/12/06 01:12:41;;;;;;;5.93;4.47;;;0.10;99.90;0.70;93989.00;;;;7394546;19;20164;-76
2022/12/06 01:15:15;;;;;;;5.37;3.90;;;0.10;99.90;0.60;93988.00;;;;7397631;19;20219;-76
2022/12/06 01:17:43;;;;;;;5.10;3.97;;;0.10;99.90;0.60;93993.00;;;;7397744;19;20133;-76
2022/12/06 01:20:10;;;;;;;6.07;4.00;;;0.10;99.90;0.40;94008.00;;;;7396611;19;20485;-77
2022/12/06 01:22:44;;;;;;;5.63;4.07;;;0.10;99.90;0.50;94001.00;;;;7398955;19;20129;-78
2022/12/06 01:25:11;;;;;;;101.30;9.40;;;0.10;99.90;0.40;93983.00;;;;7398014;19;20200;-78
2022/12/06 01:27:38;;;;;;;5.83;3.80;;;0.10;99.90;0.40;94000.00;;;;7397172;19;20146;-77
2022/12/06 01:30:12;;;;;;;5.97;4.37;;;0.10;99.90;0.40;94013.00;;;;7397175;19;20210;-78
2022/12/06 01:32:39;;;;;;;5.57;4.10;;;0.00;99.90;0.40;93995.00;;;;7396089;19;20160;-78
2022/12/06 01:35:07;;;;;;;6.07;4.00;;;0.00;99.90;0.50;94002.00;;;;7396208;19;20527;-77
2022/12/06 01:37:41;;;;;;;3.90;3.50;;;0.00;99.90;0.40;93987.00;;;;7396070;19;20611;-77
2022/12/06 01:40:10;;;;;;;4.77;3.63;;;0.10;96.90;0.50;93993.00;;;;7396556;19;20129;-77
2022/12/06 01:42:37;;;;;;;5.23;3.57;;;0.10;99.90;0.50;93980.00;;;;7397240;19;20200;-77
2022/12/06 01:45:17;;;;;;;4.40;3.23;;;0.10;99.90;0.50;94008.00;;;;7396441;19;20622;-77
2022/12/06 01:47:45;;;;;;;5.50;3.60;;;0.10;99.90;0.50;93998.00;;;;7398259;19;20125;-77
2022/12/06 01:50:29;;;;;;;4.33;3.23;;;0.10;99.90;0.50;94000.00;;;;7396496;19;20151;-77
2022/12/06 01:53:07;;;;;;;3.83;3.00;;;0.10;96.20;0.50;93985.00;;;;7396653;19;20163;-77
2022/12/06 01:55:41;;;;;;;4.57;3.30;;;0.10;87.40;0.50;93996.00;;;;7397678;19;20152;-77
2022/12/06 01:58:38;;;;;;;4.30;3.33;;;0.10;89.70;0.50;93989.00;;;;7403894;19;20475;-78
2022/12/06 02:01:12;;;;;;;6.90;3.83;;;0.10;71.80;0.50;93991.00;;;;7405611;19;20599;-76
2022/12/06 02:03:40;;;;;;;3.40;3.10;;;0.10;83.20;0.40;93986.00;;;;7405366;19;20181;-75
2022/12/06 02:06:08;;;;;;;4.03;3.27;;;0.10;62.70;0.50;93997.00;;;;7404198;19;20164;-76
2022/12/06 02:08:43;;;;;;;4.87;3.13;;;0.10;60.20;0.40;93995.00;;;;7400737;19;20131;-76
2022/12/06 02:11:10;;;;;;;4.43;3.57;;;0.10;69.10;0.40;93998.00;;;;7404109;19;20465;-76
2022/12/06 02:13:39;;;;;;;4.80;3.53;;;0.10;80.10;0.40;93977.00;;;;7401896;19;20163;-76
2022/12/06 02:16:38;;;;;;;6.40;4.00;;;0.10;80.70;0.40;94001.00;;;;7403741;19;20580;-76
2022/12/06 02:19:51;;;;;;;6.30;4.33;;;0.10;85.70;0.50;93956.00;;;;7405025;19;20531;-76
2022/12/06 02:23:10;;;;;;;4.73;4.10;;;0.10;79.40;0.40;93995.00;;;;7402542;19;20517;-75
2022/12/06 02:26:02;;;;;;;5.60;4.17;;;0.10;82.50;0.40;93990.00;;;;7402439;19;20151;-76
2022/12/06 02:28:57;;;;;;;4.77;4.00;;;0.10;91.20;0.40;93999.00;;;;7402201;19;20620;-76
2022/12/06 02:31:37;;;;;;;3.93;3.53;;;0.10;89.60;0.40;93992.00;;;;7405095;19;20129;-76
2022/12/06 02:34:19;;;;;;;6.80;4.23;;;0.10;91.70;0.40;93959.00;;;;7402724;19;20140;-76
2022/12/06 02:37:11;;;;;;;5.40;4.10;;;0.10;95.40;0.40;93987.00;;;;7404499;19;20148;-76
2022/12/06 02:40:15;;;;;;;5.20;4.13;;;0.10;99.30;0.40;93983.00;;;;7400572;19;20603;-75
2022/12/06 02:43:18;;;;;;;3.97;3.57;;;0.10;99.90;0.40;93978.00;;;;7402167;19;20521;-76
2022/12/06 02:46:10;;;;;;;5.53;3.90;;;0.10;99.90;0.40;93979.00;;;;7404473;19;20136;-76
2022/12/06 02:48:39;;;;;;;4.60;3.57;;;0.10;99.90;0.40;93988.00;;;;7401969;19;20136;-75
2022/12/06 02:51:16;;;;;;;5.23;3.90;;;0.10;99.90;0.40;93954.00;;;;7403114;19;20124;-76
2022/12/06 02:53:51;;;;;;;4.63;3.53;;;0.10;99.90;0.40;93980.00;;;;7403750;19;20521;-76
2022/12/06 02:56:26;;;;;;;4.67;3.70;;;0.10;99.90;0.40;93980.00;;;;7403644;19;20149;-76
2022/12/06 02:58:53;;;;;;;4.57;4.00;;;0.10;99.90;0.50;93965.00;;;;7403631;19;20133;-76
2022/12/06 03:01:31;;;;;;;4.83;3.73;;;0.10;99.90;0.50;93949.00;;;;7400438;19;20144;-76
2022/12/06 03:04:14;;;;;;;4.17;3.30;;;0.10;99.90;0.50;93982.00;;;;7400848;19;20196;-76
2022/12/06 03:07:15;;;;;;;4.37;3.10;;;0.10;99.90;0.50;93985.00;;;;7402658;19;20148;-76
2022/12/06 03:10:34;;;;;;;4.60;3.43;;;0.20;99.90;0.50;93975.00;;;;7399168;19;20153;-76
2022/12/06 03:13:24;;;;;;;4.33;3.53;;;0.10;99.90;0.50;93932.00;;;;7402715;19;20121;-75
2022/12/06 03:16:02;;;;;;;5.23;3.83;;;0.20;99.90;0.50;93960.00;;;;7400895;19;20245;-76
2022/12/06 03:18:54;;;;;;;5.80;4.13;;;0.20;99.90;0.50;93960.00;;;;7400984;19;20156;-76
2022/12/06 03:21:47;;;;;;;4.87;3.57;;;0.10;99.90;0.40;93970.00;;;;7401080;19;20152;-76
2022/12/06 03:24:16;;;;;;;5.50;4.10;;;0.10;99.90;0.40;93932.00;;;;7402212;19;20156;-76
2022/12/06 03:26:53;;;;;;;5.30;3.90;;;0.10;99.90;0.40;93935.00;;;;7401240;19;20170;-76
2022/12/06 03:29:24;;;;;;;6.30;4.33;;;0.10;70.40;0.50;93967.00;;;;7398398;19;20141;-76
2022/12/06 03:32:02;;;;;;;5.27;3.87;;;0.10;87.40;0.50;93964.00;;;;7402773;19;20157;-75
2022/12/06 03:34:42;;;;;;;4.43;3.97;;;0.10;96.50;0.70;93944.00;;;;7402555;19;20137;-76
2022/12/06 03:37:22;;;;;;;4.63;3.70;;;0.20;99.90;0.60;93955.00;;;;7401308;19;20140;-75
2022/12/06 03:40:14;;;;;;;4.93;3.80;;;0.20;94.90;0.50;93958.00;;;;7401817;19;20468;-76
2022/12/06 03:43:02;;;;;;;5.57;4.23;;;0.20;92.40;0.50;93954.00;;;;7400730;19;20521;-76
2022/12/06 03:45:45;;;;;;;5.07;3.67;;;0.20;94.60;0.50;93936.00;;;;7402212;19;20129;-76
2022/12/06 03:48:28;;;;;;;4.90;3.90;;;0.20;99.30;0.50;93936.00;;;;7400270;19;20491;-76
2022/12/06 03:51:05;;;;;;;6.53;4.30;;;0.20;81.50;0.50;93954.00;;;;7400781;19;20607;-76
2022/12/06 03:53:52;;;;;;;5.60;4.10;;;0.20;79.00;0.50;93961.00;;;;7400261;19;20503;-76
2022/12/06 03:56:21;;;;;;;4.87;3.80;;;0.20;63.10;0.50;93923.00;;;;7398304;19;20180;-75
2022/12/06 03:58:55;;;;;;;4.80;3.87;;;0.20;55.10;0.60;93944.00;;;;7397583;19;20139;-76
2022/12/06 04:01:22;;;;;;;5.23;3.73;;;0.20;61.60;0.70;93929.00;;;;7399887;19;20457;-76
2022/12/06 04:03:49;;;;;;;6.13;3.70;;;0.20;57.30;0.60;93934.00;;;;7400088;19;20157;-76
2022/12/06 04:06:23;;;;;;;4.80;3.73;;;0.20;57.00;0.70;93908.00;;;;7401233;19;20136;-75
2022/12/06 04:08:50;;;;;;;6.67;3.50;;;0.20;55.00;0.70;93922.00;;;;7400582;19;20208;-76
2022/12/06 04:11:17;;;;;;;6.77;4.53;;;0.20;51.20;0.70;93926.00;;;;7400925;19;20615;-75
2022/12/06 04:13:51;;;;;;;4.03;3.37;;;0.20;68.60;0.50;93905.00;;;;7399967;19;20147;-76
2022/12/06 04:19:10;;;;;;;4.93;4.20;;;0.30;60.90;0.60;93927.00;;;;7399086;19;20171;-76
2022/12/06 04:24:32;;;;;;;4.00;3.40;;;0.30;68.60;0.60;93930.00;;;;7398661;19;20592;-76
2022/12/06 04:41:06;;;;;;;6.40;4.40;;;0.30;94.60;0.80;93930.00;;;;7400924;19;20125;-76
2022/12/06 04:43:46;;;;;;;4.73;3.40;;;0.30;94.90;0.50;93909.00;;;;7399272;19;20152;-76
2022/12/06 04:46:19;;;;;;;7.93;4.20;;;0.30;87.20;0.70;93905.00;;;;7400620;19;20129;-76
2022/12/06 04:48:47;;;;;;;4.83;3.73;;;0.40;96.50;0.80;93897.00;;;;7399433;19;20137;-75
2022/12/06 04:51:15;;;;;;;5.47;4.37;;;0.40;99.90;0.80;93884.00;;;;7400308;19;20128;-76
2022/12/06 04:53:49;;;;;;;6.13;4.00;;;0.30;96.80;0.80;93894.00;;;;7399803;19;20132;-75
2022/12/06 04:56:17;;;;;;;5.40;3.83;;;0.30;99.90;0.70;93908.00;;;;7397654;19;20179;-76
2022/12/06 04:58:45;;;;;;;5.63;4.67;;;0.30;99.90;0.70;93912.00;;;;7399197;19;20135;-75
2022/12/06 05:01:18;;;;;;;5.47;4.10;;;0.30;99.90;0.70;93913.00;;;;7399859;19;20148;-75
2022/12/06 05:03:45;;;;;;;5.90;3.83;;;0.30;99.90;0.70;93902.00;;;;7398527;19;20144;-75
2022/12/06 05:06:12;;;;;;;4.53;3.80;;;0.30;99.90;0.60;93912.00;;;;7400199;19;20121;-76
2022/12/06 05:08:45;;;;;;;5.90;4.17;;;0.30;99.90;0.70;93909.00;;;;7399048;19;20197;-76
2022/12/06 05:11:12;;;;;;;5.17;4.00;;;0.30;99.90;0.70;93901.00;;;;7399159;19;20140;-76
2022/12/06 05:13:39;;;;;;;6.73;4.40;;;0.30;99.90;0.70;93909.00;;;;7398090;19;20139;-76
2022/12/06 05:16:13;;;;;;;6.23;4.77;;;0.30;99.90;0.80;93919.00;;;;7399645;19;20171;-76
2022/12/06 05:18:40;;;;;;;5.07;4.20;;;0.30;99.90;0.80;93881.00;;;;7399410;19;20125;-75
2022/12/06 05:21:26;;;;;;;5.73;4.37;;;0.30;99.90;0.90;93912.00;;;;7399668;19;20634;-74
2022/12/06 05:24:00;;;;;;;6.67;4.90;;;0.30;99.90;0.90;93878.00;;;;7399248;19;20163;-76
2022/12/06 05:26:28;;;;;;;6.17;4.60;;;0.30;99.90;0.70;93904.00;;;;7399324;19;20487;-75
2022/12/06 05:28:56;;;;;;;5.30;4.57;;;0.40;99.90;0.80;93887.00;;;;7398092;19;20134;-76
2022/12/06 05:31:30;;;;;;;5.03;4.30;;;0.40;99.90;0.70;93890.00;;;;7397351;19;20611;-75
2022/12/06 05:33:57;;;;;;;6.33;4.90;;;0.40;99.90;0.70;93846.00;;;;7394408;19;20610;-75
2022/12/06 05:36:27;;;;;;;5.10;4.40;;;0.40;99.90;0.80;93900.00;;;;7396426;19;20157;-75
2022/12/06 05:39:00;;;;;;;6.03;4.70;;;0.40;99.90;0.90;93911.00;;;;7396271;19;20159;-75
2022/12/06 05:41:26;;;;;;;6.57;4.67;;;0.40;99.90;0.90;93884.00;;;;7398779;19;20632;-76
2022/12/06 05:43:53;;;;;;;8.67;5.30;;;0.40;99.90;0.80;93899.00;;;;7397655;19;20250;-75
2022/12/06 05:46:27;;;;;;;5.93;4.43;;;0.40;99.90;0.70;93901.00;;;;7397782;19;20153;-75
2022/12/06 05:48:54;;;;;;;7.47;4.43;;;0.40;99.90;0.80;93853.00;;;;7398035;19;20144;-75
2022/12/06 05:51:21;;;;;;;5.97;4.30;;;0.40;99.90;0.80;93881.00;;;;7397699;19;20225;-75
2022/12/06 05:53:55;;;;;;;5.27;3.97;;;0.40;99.90;0.80;93835.00;;;;7394325;19;20144;-75
2022/12/06 05:56:22;;;;;;;7.10;4.47;;;0.40;99.90;0.80;93886.00;;;;7396499;19;20137;-74
2022/12/06 05:58:49;;;;;;;4.87;4.00;;;0.40;99.90;0.80;93920.00;;;;7395755;19;20507;-76
2022/12/06 06:01:22;;;;;;;7.30;4.40;;;0.40;99.90;0.80;93891.00;;;;7396218;19;20140;-74
2022/12/06 06:03:49;;;;;;;5.00;3.97;;;0.40;99.90;0.90;93907.00;;;;7394637;19;20156;-76
2022/12/06 06:06:16;;;;;;;7.53;5.00;;;0.40;96.60;0.90;93867.00;;;;7395276;19;20148;-76
2022/12/06 06:08:51;;;;;;;6.17;4.40;;;0.40;97.30;0.80;93896.00;;;;7394288;19;20125;-77
2022/12/06 06:11:18;;;;;;;6.07;4.63;;;0.40;99.90;0.80;93873.00;;;;7397546;19;20141;-75
2022/12/06 06:13:45;;;;;;;14.73;5.27;;;0.40;99.90;0.80;93871.00;;;;7393817;19;20662;-76
2022/12/06 06:16:20;;;;;;;9.27;4.77;;;0.30;99.90;0.60;93858.00;;;;7397583;19;20541;-74
2022/12/06 06:18:50;;;;;;;8.63;5.60;;;0.30;99.90;0.60;93890.00;;;;7394608;19;20133;-75
2022/12/06 06:21:17;;;;;;;6.90;4.97;;;0.30;99.90;0.60;93845.00;;;;7395593;19;20141;-73
2022/12/06 06:23:51;;;;;;;7.23;5.00;;;0.30;99.90;0.70;93899.00;;;;7395453;19;20623;-75
2022/12/06 06:26:22;;;;;;;6.20;4.53;;;0.30;99.90;0.70;93858.00;;;;7392067;19;20481;-75
2022/12/06 06:28:52;;;;;;;7.37;4.50;;;0.30;99.90;0.70;93806.00;;;;7393648;19;20572;-76
2022/12/06 06:31:26;;;;;;;7.67;5.40;;;0.30;99.90;0.60;93838.00;;;;7396341;19;20151;-75
2022/12/06 06:33:53;;;;;;;6.27;4.50;;;0.40;99.90;0.70;93888.00;;;;7396102;19;20125;-75
2022/12/06 06:36:20;;;;;;;8.00;5.80;;;0.40;99.90;0.40;93878.00;;;;7394674;19;20638;-77
2022/12/06 06:38:54;;;;;;;7.93;5.87;;;0.40;99.90;0.70;93882.00;;;;7395762;19;20220;-74
2022/12/06 06:41:21;;;;;;;7.10;5.53;;;0.40;99.90;0.70;93901.00;;;;7391647;19;20132;-75
2022/12/06 06:43:48;;;;;;;7.87;5.50;;;0.40;99.90;0.80;93865.00;;;;7400136;19;20204;-74
2022/12/06 06:46:22;;;;;;;6.50;5.10;;;0.40;99.90;0.90;93879.00;;;;7402831;19;20137;-72
2022/12/06 06:48:49;;;;;;;8.90;6.07;;;0.40;99.90;0.90;93898.00;;;;7401332;19;20152;-74
2022/12/06 06:51:18;;;;;;;8.30;5.73;;;0.40;99.90;1.00;93849.00;;;;7401557;19;20564;-76
2022/12/06 06:53:54;;;;;;;6.13;4.83;;;0.40;99.90;0.90;93895.00;;;;7401989;19;20132;-75
2022/12/06 06:56:21;;;;;;;6.20;5.00;;;0.40;99.90;0.80;93835.00;;;;7399824;19;20140;-76
2022/12/06 06:58:48;;;;;;;8.33;5.40;;;0.40;99.90;0.90;93734.00;;;;7401788;19;20157;-75
2022/12/06 07:01:23;;;;;;;6.90;5.27;;;0.40;99.90;0.90;93903.00;;;;7401750;19;20212;-74
2022/12/06 07:03:50;;;;;;;7.27;5.60;;;0.50;99.90;0.90;93877.00;;;;7403585;19;20125;-75
2022/12/06 07:06:18;;;;;;;9.03;5.63;;;0.50;99.90;1.10;93878.00;;;;7393832;19;20143;-76
2022/12/06 07:08:51;;;;;;;6.57;4.77;;;0.50;99.90;1.00;93865.00;;;;7399712;19;20149;-76
2022/12/06 07:11:18;;;;;;;7.80;4.80;;;0.50;99.90;1.00;93912.00;;;;7402003;19;20156;-76
2022/12/06 07:13:45;;;;;;;8.03;5.13;;;0.50;99.90;0.80;93899.00;;;;7400128;19;20129;-75
2022/12/06 07:16:19;;;;;;;11.40;6.50;;;0.60;99.90;1.00;93922.00;;;;7401537;19;20148;-76
2022/12/06 07:18:47;;;;;;;7.57;5.97;;;0.60;99.90;0.90;93886.00;;;;7401098;19;20131;-75
2022/12/06 07:21:15;;;;;;;7.67;5.30;;;0.60;99.90;0.90;93896.00;;;;7398200;19;20129;-76
2022/12/06 07:23:50;;;;;;;8.53;5.30;;;0.70;99.90;0.90;93919.00;;;;7401225;19;20586;-76
2022/12/06 07:26:22;;;;;;;6.83;5.63;;;0.70;99.90;1.00;93881.00;;;;7400301;19;20144;-75
2022/12/06 07:28:56;;;;;;;7.33;5.30;;;0.70;99.90;1.10;93899.00;;;;7400532;19;20639;-75
2022/12/06 07:31:27;;;;;;;7.77;5.77;;;0.70;99.90;1.10;93894.00;;;;7398297;19;20144;-75
2022/12/06 07:33:58;;;;;;;8.23;5.60;;;0.70;99.90;1.10;93912.00;;;;7401138;19;20133;-75
2022/12/06 07:36:32;;;;;;;6.73;5.30;;;0.70;99.90;1.10;93901.00;;;;7400643;19;20128;-77
2022/12/06 07:38:59;;;;;;;8.73;6.30;;;0.70;99.90;1.10;93929.00;;;;7399751;19;20612;-76
2022/12/06 07:47:14;;;;;;;8.80;6.47;;;0.70;99.90;1.30;93913.00;;;;7401093;19;20140;-76
2022/12/06 07:49:51;;;;;;;10.07;7.33;;;0.80;99.90;1.10;93907.00;;;;7399250;19;20140;-76
2022/12/06 07:52:19;;;;;;;12.37;8.20;;;0.80;99.90;1.30;93921.00;;;;7399191;19;20163;-76
2022/12/06 07:54:46;;;;;;;12.27;7.60;;;0.80;99.90;1.20;93923.00;;;;7398780;19;20599;-76
2022/12/06 07:57:20;;;;;;;10.97;7.70;;;0.80;99.90;1.10;93878.00;;;;7398992;19;20177;-75
2022/12/06 07:59:47;;;;;;;15.10;8.73;;;0.80;99.90;1.20;93895.00;;;;7397670;19;20199;-76
2022/12/06 08:02:21;;;;;;;11.63;8.63;;;0.80;99.90;1.20;93909.00;;;;7400490;19;20449;-74
2022/12/06 08:04:55;;;;;;;9.90;8.03;;;0.80;99.90;1.20;93881.00;;;;7397670;19;20148;-77
2022/12/06 08:07:23;;;;;;;11.57;8.50;;;0.80;99.90;1.20;93890.00;;;;7398143;19;20513;-76
2022/12/06 08:09:52;;;;;;;11.77;8.40;;;0.80;99.90;1.30;93856.00;;;;7400299;19;20487;-77
2022/12/06 08:12:33;;;;;;;13.17;9.13;;;0.80;99.90;1.30;93896.00;;;;7399254;19;20171;-75
2022/12/06 08:15:00;;;;;;;11.37;8.40;;;0.80;99.90;1.30;93925.00;;;;7395163;19;20181;-76
2022/12/06 08:17:34;;;;;;;13.07;8.53;;;0.90;99.90;1.30;93885.00;;;;7400213;19;20457;-74
2022/12/06 08:20:01;;;;;;;12.30;9.20;;;0.90;99.90;1.40;93886.00;;;;7398911;19;20168;-74
2022/12/06 08:22:28;;;;;;;13.07;9.47;;;1.00;99.90;1.40;93901.00;;;;7401151;19;20120;-76
2022/12/06 08:25:02;;;;;;;13.43;8.60;;;0.90;99.90;1.40;93908.00;;;;7398285;19;20456;-77
2022/12/06 08:27:29;;;;;;;11.90;8.53;;;1.00;99.90;1.60;93892.00;;;;7398290;19;20517;-75
2022/12/06 08:29:58;;;;;;;10.60;8.63;;;1.10;99.90;1.50;93904.00;;;;7396013;19;20140;-74
2022/12/06 08:32:33;;;;;;;12.57;8.70;;;1.10;99.90;1.50;93884.00;;;;7400643;19;20180;-76
2022/12/06 08:35:00;;;;;;;14.40;10.07;;;1.10;99.90;1.60;93902.00;;;;7398394;19;20129;-76
2022/12/06 08:37:27;;;;;;;11.97;9.43;;;1.10;99.90;1.60;93885.00;;;;7397338;19;20596;-74
2022/12/06 08:40:01;;;;;;;14.57;9.87;;;1.20;99.90;1.60;93898.00;;;;7396922;19;20638;-76
2022/12/06 08:42:28;;;;;;;12.37;9.50;;;1.20;99.90;1.50;93904.00;;;;7396544;19;20152;-75
2022/12/06 08:44:55;;;;;;;11.97;9.57;;;1.30;99.90;1.60;93900.00;;;;7395609;19;20180;-74
2022/12/06 08:47:29;;;;;;;12.97;9.47;;;1.30;99.90;1.90;93902.00;;;;7398921;19;20137;-75
2022/12/06 08:49:57;;;;;;;12.37;8.90;;;1.30;99.90;1.80;93895.00;;;;7392652;19;20518;-76
2022/12/06 08:52:25;;;;;;;13.57;10.33;;;1.30;99.90;1.90;93903.00;;;;7396518;19;20125;-74
2022/12/06 08:54:59;;;;;;;14.13;9.87;;;1.30;99.90;1.90;93872.00;;;;7395937;19;20133;-76
2022/12/06 08:57:26;;;;;;;13.87;9.83;;;1.40;99.90;1.90;93876.00;;;;7396784;19;20592;-75
2022/12/06 08:59:54;;;;;;;15.30;10.10;;;1.30;99.90;1.70;93902.00;;;;7395638;19;20155;-76
2022/12/06 09:02:28;;;;;;;12.93;9.47;;;1.30;99.90;1.80;93907.00;;;;7397694;19;20161;-75
2022/12/06 09:04:55;;;;;;;15.50;10.37;;;1.30;99.90;2.00;93929.00;;;;7397582;19;20617;-72
2022/12/06 09:07:25;;;;;;;15.17;10.23;;;1.20;99.90;1.70;93913.00;;;;7393605;19;20153;-73
2022/12/06 09:09:59;;;;;;;16.37;10.73;;;1.30;99.90;1.70;93919.00;;;;7394141;19;20178;-74
2022/12/06 09:12:27;;;;;;;16.33;10.97;;;1.30;99.90;1.80;93941.00;;;;7392493;19;20148;-74
2022/12/06 09:14:54;;;;;;;20.80;11.80;;;1.40;99.90;2.30;93933.00;;;;7392806;19;20187;-74
2022/12/06 09:17:28;;;;;;;16.67;11.60;;;1.30;99.90;2.20;93922.00;;;;7396068;19;20148;-75
2022/12/06 09:19:55;;;;;;;17.40;11.70;;;1.30;99.90;2.30;93940.00;;;;7397764;19;20466;-74
2022/12/06 09:22:27;;;;;;;23.10;12.90;;;1.30;99.90;2.30;93927.00;;;;7397658;19;20188;-74
2022/12/06 09:25:01;;;;;;;18.50;12.07;;;1.30;99.90;2.20;93920.00;;;;7395760;19;20490;-74
2022/12/06 09:27:34;;;;;;;19.30;12.50;;;1.30;99.90;2.10;93934.00;;;;7396725;19;20139;-74
2022/12/06 09:30:08;;;;;;;24.40;12.67;;;1.30;99.90;1.80;93931.00;;;;7393703;19;20140;-73
2022/12/06 09:32:35;;;;;;;22.07;12.97;;;1.30;99.90;1.80;93949.00;;;;7395966;19;20129;-72
2022/12/06 09:35:03;;;;;;;18.20;12.77;;;1.30;99.90;1.80;93934.00;;;;7390659;19;20135;-72
2022/12/06 09:37:42;;;;;;;70.83;14.27;;;1.20;99.90;1.60;93936.00;;;;7397284;19;20132;-73
2022/12/06 09:40:23;;;;;;;23.87;13.87;;;1.20;99.90;1.20;93941.00;;;;7397814;19;20125;-74
2022/12/06 09:43:50;;;;;;;26.07;13.93;;;1.30;99.90;1.70;93943.00;;;;7394873;19;20501;-71
2022/12/06 09:47:02;;;;;;;55.80;15.00;;;1.20;49.80;1.90;93949.00;;;;7395933;19;20141;-72
2022/12/06 09:50:01;;;;;;;45.27;15.53;;;1.10;6.70;1.60;93944.00;;;;7394840;19;20140;-73
2022/12/06 09:53:10;;;;;;;42.63;14.90;;;1.10;1.40;1.50;93941.00;;;;7395881;19;20483;-71
2022/12/06 09:56:15;;;;;;;78.47;16.90;;;1.10;1.00;1.60;93948.00;;;;7391359;19;20133;-72
2022/12/06 09:59:01;;;;;;;78.13;18.13;;;1.20;1.00;1.80;93935.00;;;;7395226;19;20176;-72
2022/12/06 10:01:59;;;;;;;88.80;16.13;;;1.10;1.00;1.50;93916.00;;;;7394963;19;20145;-72
2022/12/06 10:05:27;;;;;;;98.33;18.90;;;1.10;1.00;1.40;93916.00;;;;7392601;19;20516;-71
2022/12/06 10:08:28;;;;;;;175.13;21.23;;;1.10;1.00;0.60;93938.00;;;;7394805;19;20151;-71
2022/12/06 10:10:58;;;;;;;108.33;19.17;;;1.10;1.00;1.60;93931.00;;;;7394632;19;20220;-73
2022/12/06 10:14:10;;;;;;;189.53;20.03;;;1.00;1.00;1.60;93927.00;;;;7393566;19;20201;-74
2022/12/06 10:17:01;;;;;;;188.60;21.47;;;1.00;1.00;1.40;93927.00;;;;7397225;19;20140;-72
2022/12/06 10:20:25;;;;;;;188.63;21.77;;;0.90;1.00;1.60;93936.00;;;;7403214;19;20139;-73
2022/12/06 10:23:09;;;;;;;299.63;22.13;;;0.90;1.00;1.20;93929.00;;;;7403606;19;20132;-73
2022/12/06 10:26:11;;;;;;;226.53;22.43;;;0.90;1.00;1.50;93933.00;;;;7396204;19;20162;-74
2022/12/06 10:29:04;;;;;;;507.57;32.60;;;1.00;1.00;1.50;93933.00;;;;7397496;19;20125;-71
2022/12/06 10:31:58;;;;;;;432.83;30.47;;;0.90;1.00;1.60;93926.00;;;;7397143;19;20148;-72
2022/12/06 10:34:57;;;;;;;377.33;26.20;;;0.90;1.00;1.50;93920.00;;;;7401374;19;20580;-74
2022/12/06 10:37:45;;;;;;;426.80;24.67;;;1.00;1.00;1.60;93899.00;;;;7400484;19;20148;-72
2022/12/06 10:40:48;;;;;;;202.27;19.90;;;1.00;1.00;1.20;93904.00;;;;7400384;19;20137;-72
2022/12/06 10:43:40;;;;;;;389.60;32.47;;;1.10;1.00;1.60;93894.00;;;;7399924;19;20160;-72
2022/12/06 10:49:54;;;;;;;403.67;25.43;;;1.10;1.00;1.30;93908.00;;;;7402263;19;20448;-72
2022/12/06 10:52:42;;;;;;;600.70;39.43;;;1.10;1.00;1.70;93902.00;;;;7400807;19;20141;-71
2022/12/06 10:55:32;;;;;;;432.20;25.20;;;1.20;1.00;1.60;93898.00;;;;7400630;19;20509;-72
2022/12/06 10:58:42;;;;;;;518.90;30.80;;;1.10;1.00;1.60;93901.00;;;;7399202;19;20136;-72
2022/12/06 11:01:27;;;;;;;413.43;25.87;;;1.20;1.00;1.60;93896.00;;;;7400794;19;20140;-71
2022/12/06 11:04:15;;;;;;;495.23;32.57;;;1.20;1.00;1.70;93899.00;;;;7398376;19;20156;-72
2022/12/06 11:06:57;;;;;;;412.40;25.37;;;1.20;1.00;1.70;93907.00;;;;7400068;19;20160;-70
2022/12/06 11:09:41;;;;;;;291.40;21.97;;;1.20;1.00;1.80;93906.00;;;;7399088;19;20152;-71
2022/12/06 11:12:37;;;;;;;244.07;24.13;;;1.30;1.00;1.90;93902.00;;;;7397222;19;20624;-71
2022/12/06 11:15:32;;;;;;;205.87;19.63;;;1.30;1.00;2.00;93903.00;;;;7398229;19;20184;-71
2022/12/06 11:18:15;;;;;;;213.13;18.03;;;1.30;1.00;1.80;93899.00;;;;7400091;19;20153;-71
2022/12/06 11:20:59;;;;;;;166.97;20.37;;;1.30;1.00;1.80;93885.00;;;;7401132;19;20132;-71
2022/12/06 11:23:59;;;;;;;131.50;15.87;;;1.40;1.00;1.90;93896.00;;;;7400590;19;20152;-72
2022/12/06 11:26:45;;;;;;;113.97;14.97;;;1.40;1.00;2.00;93891.00;;;;7398558;19;20152;-72
2022/12/06 11:29:19;;;;;;;38.97;11.70;;;1.40;1.00;2.10;93890.00;;;;7391299;19;20624;-72
2022/12/06 11:31:56;;;;;;;64.53;10.57;;;1.40;1.00;1.80;93909.00;;;;7394752;19;20157;-72
2022/12/06 11:34:46;;;;;;;43.63;10.20;;;1.40;1.00;1.70;93903.00;;;;7399653;19;20639;-72
2022/12/06 11:37:36;;;;;;;24.00;8.33;;;1.40;1.00;1.80;93908.00;;;;7400785;19;20140;-72
2022/12/06 11:40:23;;;;;;;41.33;7.93;;;1.40;99.90;1.50;93902.00;;;;7400564;19;20168;-72
2022/12/06 11:42:52;;;;;;;52.50;8.10;;;1.40;99.90;1.50;93914.00;;;;7395375;19;20619;-72
2022/12/06 11:45:46;;;;;;;106.37;9.73;;;1.40;99.90;1.50;93907.00;;;;7396860;19;20160;-73
2022/12/06 11:48:23;;;;;;;80.27;9.57;;;1.30;99.90;1.50;93909.00;;;;7398026;19;20180;-72
2022/12/06 11:50:56;;;;;;;67.37;8.33;;;1.30;99.90;1.50;93896.00;;;;7397117;19;20148;-72
2022/12/06 11:53:41;;;;;;;46.77;8.23;;;1.30;99.90;1.70;93901.00;;;;7398377;19;20148;-72
2022/12/06 11:56:46;;;;;;;84.90;9.30;;;1.30;99.90;1.70;93902.00;;;;7396448;19;20173;-72
2022/12/06 11:59:29;;;;;;;86.00;8.57;;;1.30;99.90;1.70;93888.00;;;;7398277;19;20166;-72
2022/12/06 12:02:03;;;;;;;61.13;6.80;;;1.20;99.90;1.70;93895.00;;;;7397861;19;20148;-72
2022/12/06 12:04:37;;;;;;;65.10;6.20;;;1.10;99.90;1.60;93910.00;;;;7398908;19;20172;-73
2022/12/06 12:07:21;;;;;;;58.67;5.67;;;1.20;99.90;1.70;93910.00;;;;7398756;19;20482;-72
2022/12/06 12:10:22;;;;;;;85.63;9.13;;;1.10;99.90;1.30;93905.00;;;;7398844;19;20140;-72
2022/12/06 12:15:52;;;;;;;29.20;4.73;;;1.10;99.90;1.60;93878.00;;;;7399323;19;20136;-72
2022/12/06 12:18:35;;;;;;;20.90;3.70;;;1.10;99.90;1.30;93886.00;;;;7398127;19;20136;-73